Latest Weather Observations for Oakey

IDQ60901

Issued at 3:51 pm EST Sunday 22 January 2017 (issued every 10 minutes, with the page automatically refreshed every 10 minutes)

About weather observations | Map of Brisbane area stations | Latest observations for Brisbane area | Other Formats
Station Details ID: 041359 Name: OAKEY AERO Lat: -27.40 Lon: 151.74 Height: 405.69 m
Data from the previous 72 hours. | See also: Recent months at Oakey
Date/Time
EST
Temp
°C
App
Temp
°C
Dew
Point
°C
Rel
Hum
%
Delta-T
°C
Wind Press
QNH
hPa
Press
MSL
hPa
Rain since
9am
mm
Dir  Spd
km/h
Gust
km/h
Spd
kts
Gust
kts
22/03:30pm 25.6 23.6 17.5 61 5.1 E 24 30 13 16 1015.3 1013.0 0.0
22/03:00pm 25.7 23.6 18.1 63 4.9 E 26 35 14 19 1015.6 1013.2 0.0
22/02:30pm 26.6 24.7 17.7 58 5.7 ESE 24 32 13 17 1015.7 1013.3 0.0
22/02:00pm 27.1 25.6 17.6 56 6.1 ENE 22 30 12 16 1015.8 1013.5 0.0
22/01:30pm 26.6 24.7 17.7 58 5.7 ENE 24 32 13 17 1015.9 1013.6 0.0
22/01:00pm 26.0 23.2 17.4 59 5.5 E 28 35 15 19 1016.2 1013.9 0.0
22/12:30pm 26.2 23.4 17.3 58 5.7 ENE 28 39 15 21 1016.5 1014.2 0.0
22/12:00pm 25.9 23.9 18.3 63 4.9 ENE 26 35 14 19 1016.7 1014.4 0.0
22/11:30am 25.5 22.1 17.7 62 5.0 E 32 37 17 20 1016.9 1014.6 0.0
22/11:00am 24.3 20.9 17.8 67 4.1 E 32 41 17 22 1017.2 1014.9 0.0
22/10:30am 24.9 22.6 18.4 67 4.2 ENE 28 37 15 20 1017.4 1015.1 0.0
22/10:00am 24.3 21.7 17.8 67 4.1 E 28 39 15 21 1017.4 1015.1 0.0
22/09:30am 23.8 20.7 17.5 68 4.0 E 30 41 16 22 1017.3 1015.0 0.0
22/09:00am 23.5 20.9 17.7 70 3.7 ENE 28 35 15 19 1017.2 1014.9 15.8
22/08:37am 22.9 19.9 17.8 73 3.2 E 30 43 16 23 1017.1 1014.8 15.8
22/08:30am 22.8 20.2 17.7 73 3.2 E 28 35 15 19 1017.1 1014.8 15.8
22/08:00am 21.1 18.6 18.1 83 1.9 E 28 35 15 19 1017.2 1014.9 15.8
22/07:30am 20.8 19.1 18.2 85 1.6 E 24 30 13 16 1017.1 1014.8 15.8
22/07:00am 20.4 18.9 18.5 89 1.2 E 24 33 13 18 1016.7 1014.4 15.8
22/06:34am 20.7 19.8 18.1 85 1.6 ESE 20 30 11 16 1016.5 1014.2 15.8
22/06:30am 20.5 19.5 17.9 85 1.6 E 20 30 11 16 1016.5 1014.2 15.8
22/06:00am 20.9 18.6 17.7 82 2.0 E 26 32 14 17 1016.0 1013.7 15.8
22/05:30am 20.9 18.6 17.7 82 2.0 E 26 32 14 17 1015.2 1012.9 15.8
22/05:00am 20.9 19.4 17.7 82 2.0 E 22 33 12 18 1014.8 1012.5 15.8
22/04:30am 20.7 18.4 17.7 83 1.9 E 26 35 14 19 1014.2 1011.9 15.8
22/04:06am 20.9 18.6 17.7 82 2.0 E 26 35 14 19 1014.0 1011.7 15.8
22/04:00am 20.9 18.6 17.7 82 2.0 E 26 32 14 17 1013.9 1011.6 15.8
22/03:30am 20.9 19.1 17.9 83 1.9 E 24 32 13 17 1013.9 1011.6 15.8
22/03:19am 20.9 19.5 17.9 83 1.9 E 22 32 12 17 1013.9 1011.6 15.8
22/03:00am 20.9 18.3 17.9 83 1.9 E 28 41 15 22 1013.9 1011.6 15.8
22/02:56am 20.9 17.6 17.9 83 1.9 ENE 32 41 17 22 1013.9 1011.6 15.8
22/02:30am 21.0 18.5 18.0 83 1.9 E 28 41 15 22 1014.0 1011.7 15.8
22/02:10am 21.1 19.3 17.9 82 2.0 E 24 35 13 19 1014.1 1011.8 15.8
22/02:00am 21.1 19.4 18.1 83 1.9 E 24 35 13 19 1014.2 1011.9 15.8
22/01:30am 21.0 19.0 18.2 84 1.8 E 26 39 14 21 1014.0 1011.7 15.8
22/01:00am 21.0 18.7 18.4 85 1.7 E 28 35 15 19 1013.9 1011.6 15.8
22/12:30am 21.2 19.2 18.2 83 1.9 E 26 35 14 19 1013.9 1011.6 15.8
22/12:20am 21.3 19.3 18.3 83 1.9 E 26 35 14 19 1014.0 1011.7 15.8
22/12:00am 21.3 20.1 18.5 84 1.8 E 22 30 12 16 1014.2 1011.9 15.8
 
Date/Time
EST
Temp
°C
App
Temp
°C
Dew
Point
°C
Rel
Hum
%
Delta-T
°C
Wind Press
QNH
hPa
Press
MSL
hPa
Rain since
9am
mm
Dir  Spd
km/h
Gust
km/h
Spd
kts
Gust
kts
21/11:30pm 21.6 19.7 18.6 83 1.9 E 26 41 14 22 1014.3 1012.0 15.8
21/11:00pm 21.8 19.6 18.8 83 1.9 E 28 39 15 21 1014.3 1012.0 15.8
21/10:30pm 22.0 20.3 19.0 83 1.9 E 26 33 14 18 1014.3 1012.0 15.8
21/10:00pm 22.0 19.6 19.2 84 1.8 E 30 43 16 23 1013.9 1011.6 15.8
21/09:30pm 21.9 19.7 19.5 86 1.6 E 30 39 16 21 1014.0 1011.7 15.8
21/09:00pm 21.9 20.5 19.6 87 1.5 E 26 32 14 17 1013.7 1011.4 15.8
21/08:30pm 22.2 19.7 19.7 86 1.6 E 32 44 17 24 1013.3 1010.9 15.8
21/08:00pm 22.5 19.9 19.9 85 1.7 E 33 44 18 24 1013.1 1010.7 15.8
21/07:30pm 22.8 20.6 20.3 86 1.6 E 32 41 17 22 1012.2 1009.9 15.8
21/07:00pm 22.8 20.0 20.3 86 1.6 ENE 35 46 19 25 1011.5 1009.2 15.8
21/06:30pm 23.2 21.0 20.7 86 1.7 E 33 44 18 24 1011.4 1009.1 15.8
21/06:00pm 23.4 21.6 21.1 87 1.5 E 32 43 17 23 1010.7 1008.3 15.8
21/05:30pm 23.4 21.5 22.0 92 0.9 E 35 43 19 23 1009.7 1007.4 15.8
21/05:08pm 23.9 23.6 22.5 92 1.0 ESE 28 41 15 22 1009.5 1007.2 15.0
21/05:00pm 24.3 24.7 23.1 93 0.8 ESE 26 37 14 20 1009.6 1007.3 14.8
21/04:30pm 24.8 26.2 22.9 89 1.3 SSW 20 28 11 15 1008.7 1006.3 11.0
21/04:08pm 25.7 26.3 22.8 84 2.0 ESE 24 32 13 17 1008.3 1005.9 4.4
21/04:00pm 26.5 28.2 23.4 83 2.2 E 20 37 11 20 1008.2 1005.8 3.4
21/03:51pm 26.6 27.6 21.8 75 3.3 E 19 39 10 21 1008.3 1005.9 3.4
21/03:30pm 31.6 33.3 22.3 57 6.4 NW 17 22 9 12 1007.6 1005.3 3.4
21/03:00pm 29.4 30.7 21.6 63 5.3 WNW 17 20 9 11 1007.9 1005.5 3.4
21/02:30pm 27.3 28.5 22.5 75 3.3 NW 20 28 11 15 1008.5 1006.1 3.4
21/02:19pm 26.8 26.6 22.8 79 2.8 NW 28 37 15 20 1008.7 1006.3 3.4
21/02:00pm 26.7 29.6 23.8 84 2.0 SSW 15 26 8 14 1008.6 1006.2 3.2
21/01:45pm 26.5 25.9 21.3 73 3.5 SW 26 56 14 30 1008.7 1006.3 0.8
21/01:41pm 28.0 27.8 21.3 67 4.5 W 24 56 13 30 1008.8 1006.4 0.2
21/01:30pm 31.6 31.4 21.2 54 7.1 NW 24 32 13 17 1008.2 1005.8 0.0
21/01:00pm 32.0 33.8 21.2 52 7.4 SW 13 22 7 12 1008.3 1005.9 0.0
21/12:30pm 33.5 32.8 20.3 46 8.9 WNW 24 32 13 17 1008.5 1006.1 0.0
21/12:00pm 32.5 33.3 20.7 49 8.0 W 17 30 9 16 1008.9 1006.5 0.0
21/11:30am 31.1 33.4 22.1 58 6.2 SSW 13 20 7 11 1009.3 1007.0 0.0
21/11:00am 31.0 31.9 22.0 58 6.2 W 20 30 11 16 1009.8 1007.5 0.0
21/10:30am 29.6 31.4 21.8 63 5.3 W 15 22 8 12 1010.0 1007.7 0.0
21/10:00am 28.9 30.2 21.7 65 4.9 W 17 24 9 13 1010.1 1007.8 0.0
21/09:30am 29.6 31.0 22.6 66 4.8 WNW 19 28 10 15 1010.0 1007.7 0.0
21/09:00am 28.5 29.6 22.0 68 4.4 WNW 19 26 10 14 1009.9 1007.6 1.0
21/08:30am 27.1 28.4 22.3 75 3.3 WNW 19 26 10 14 1009.7 1007.4 1.0
21/08:00am 26.7 27.7 22.1 76 3.1 WNW 20 24 11 13 1009.6 1007.3 1.0
21/07:30am 25.9 29.3 21.6 77 2.9 WNW 6 9 3 5 1009.4 1007.1 0.8
21/07:00am 25.3 29.4 22.2 83 2.1 WNW 4 6 2 3 1009.4 1007.1 0.8
21/06:30am 24.6 29.4 22.1 86 1.7 CALM 0 0 0 0 1009.2 1006.9 0.8
21/06:00am 24.2 28.0 22.8 92 1.0 NNW 7 9 4 5 1008.7 1006.3 0.8
21/05:30am 24.1 27.7 22.4 90 1.2 WNW 7 9 4 5 1008.4 1006.0 0.8
21/05:00am 24.0 27.3 21.9 88 1.4 SSW 7 9 4 5 1008.2 1005.8 0.8
21/04:30am 24.2 28.6 22.1 88 1.4 NW 2 6 1 3 1007.8 1005.4 0.8
21/04:00am 24.1 27.1 22.0 88 1.4 W 9 13 5 7 1007.4 1005.1 0.8
21/03:30am 24.7 26.3 22.2 86 1.7 W 17 20 9 11 1007.4 1005.1 0.2
21/03:00am 25.2 28.2 21.9 82 2.2 W 9 11 5 6 1007.0 1004.7 0.2
21/02:30am 25.9 29.6 20.7 73 3.5 WNW 2 7 1 4 1006.7 1004.3 0.0
21/02:00am 25.8 29.8 20.6 73 3.5 CALM 0 0 0 0 1006.6 1004.2 0.0
21/01:30am 25.5 28.1 20.5 74 3.3 NNW 7 9 4 5 1006.6 1004.2 0.0
21/01:00am 26.0 28.7 20.6 72 3.6 W 7 11 4 6 1006.5 1004.1 0.0
21/12:30am 26.6 28.8 20.4 69 4.1 WNW 9 13 5 7 1006.6 1004.2 0.0
21/12:00am 27.1 29.9 20.9 69 4.2 W 7 11 4 6 1006.9 1004.5 0.0
 
Date/Time
EST
Temp
°C
App
Temp
°C
Dew
Point
°C
Rel
Hum
%
Delta-T
°C
Wind Press
QNH
hPa
Press
MSL
hPa
Rain since
9am
mm
Dir  Spd
km/h
Gust
km/h
Spd
kts
Gust
kts
20/11:30pm 27.4 30.3 21.0 68 4.3 NNW 7 9 4 5 1007.4 1005.1 0.0
20/11:00pm 27.6 30.6 20.9 67 4.5 NW 6 13 3 7 1007.6 1005.3 0.0
20/10:30pm 27.8 32.1 21.1 67 4.5 CALM 0 0 0 0 1008.1 1005.7 0.0
20/10:00pm 27.7 30.7 21.3 68 4.3 WNW 7 9 4 5 1008.2 1005.8 0.0
20/09:30pm 27.4 31.7 21.2 69 4.2 CALM 0 0 0 0 1007.9 1005.5 0.0
20/09:00pm 27.4 30.5 21.0 68 4.3 NNE 6 9 3 5 1007.6 1005.3 0.0
20/08:30pm 27.8 31.6 20.9 66 4.6 ENE 2 7 1 4 1007.2 1004.9 0.0
20/08:00pm 28.0 30.4 20.8 65 4.8 ESE 9 11 5 6 1006.8 1004.4 0.0
20/07:30pm 28.0 28.3 20.8 65 4.8 S 20 26 11 14 1006.6 1004.2 0.0
20/07:00pm 28.4 25.9 20.2 61 5.5 SSW 33 48 18 26 1006.5 1004.1 0.0
20/06:48pm 30.8 27.7 18.8 48 7.9 W 33 59 18 32 1006.4 1004.0 0.0
20/06:45pm 31.5 30.1 18.8 46 8.4 WNW 24 59 13 32 1006.2 1003.8 0.0
20/06:43pm 33.8 33.0 17.9 38 10.4 NW 19 37 10 20 1006.0 1003.6 0.0
20/06:30pm 33.9 34.1 17.6 38 10.6 NW 13 17 7 9 1005.4 1003.0 0.0
20/06:00pm 34.5 33.4 17.3 36 11.2 NW 19 24 10 13 1005.0 1002.7 0.0
20/05:30pm 34.9 33.2 17.2 35 11.5 WNW 22 30 12 16 1004.7 1002.4 0.0
20/05:00pm 35.2 31.1 16.5 33 12.1 WNW 33 43 18 23 1004.5 1002.1 0.0
20/04:30pm 36.6 32.4 16.2 29 13.2 WNW 33 46 18 25 1004.2 1001.8 0.0
20/04:00pm 36.0 32.4 17.2 33 12.3 WNW 32 44 17 24 1004.3 1001.9 0.0
20/03:30pm 35.8 31.5 17.0 32 12.2 WNW 35 46 19 25 1004.7 1002.4 0.0
20/03:00pm 35.7 31.8 17.9 35 11.8 NW 35 44 19 24 1005.0 1002.7 0.0
20/02:30pm 35.2 31.9 17.9 36 11.4 NW 32 48 17 26 1005.6 1003.2 0.0
20/02:00pm 35.8 32.9 18.8 36 11.4 NW 32 50 17 27 1006.1 1003.7 0.0
20/01:59pm 36.0 33.6 19.9 39 10.9 NW 32 50 17 27 1006.2 1003.8 0.0
20/01:30pm 34.6 32.3 19.4 40 10.2 NW 30 39 16 21 1006.8 1004.4 0.0
20/01:00pm 33.4 31.1 20.2 46 8.9 NNW 32 43 17 23 1007.5 1005.2 0.0
20/12:30pm 31.8 29.3 19.8 49 8.0 NNW 32 43 17 23 1008.2 1005.8 0.0
20/12:00pm 30.9 28.6 19.3 50 7.7 NNW 30 41 16 22 1008.7 1006.3 0.0
20/11:30am 30.8 29.8 20.4 54 7.0 NW 26 39 14 21 1009.1 1006.7 0.0
20/11:00am 30.6 28.4 19.6 51 7.3 NNW 30 41 16 22 1009.5 1007.2 0.0
20/10:30am 30.0 31.1 20.5 56 6.4 NNW 15 30 8 16 1009.8 1007.5 0.0
20/10:00am 28.2 28.2 19.7 60 5.6 NNW 19 30 10 16 1010.5 1008.1 0.0
20/09:30am 27.2 27.7 20.0 64 4.8 N 17 30 9 16 1010.8 1008.4 0.0
20/09:00am 26.9 26.9 19.8 65 4.7 N 19 26 10 14 1011.1 1008.7 1.4
20/08:30am 25.7 25.3 19.3 67 4.2 N 20 28 11 15 1011.3 1008.9 1.4
20/08:11am 25.8 25.6 19.7 69 4.0 NNE 20 26 11 14 1011.3 1008.9 1.4
20/08:00am 25.1 25.1 19.7 72 3.5 NE 19 24 10 13 1011.1 1008.7 1.4
20/07:30am 24.0 23.9 19.5 76 2.9 NNE 19 22 10 12 1011.5 1009.2 1.4
20/07:00am 23.6 23.5 19.5 78 2.7 NE 19 22 10 12 1011.4 1009.1 1.4
20/06:40am 23.2 22.8 19.4 79 2.5 NE 20 26 11 14 1011.3 1008.9 1.4
20/06:30am 23.0 22.5 19.2 79 2.5 NE 20 24 11 13 1011.2 1008.8 1.4
20/06:00am 22.4 22.0 19.4 83 1.9 NE 20 26 11 14 1011.1 1008.7 1.4
20/05:30am 21.9 22.0 19.1 84 1.8 NE 17 20 9 11 1010.8 1008.4 1.4
20/05:00am 22.1 22.1 18.9 82 2.1 ENE 17 22 9 12 1010.8 1008.4 1.4
20/04:33am 21.9 22.5 18.7 82 2.0 ENE 13 17 7 9 1010.5 1008.1 1.4
20/04:30am 21.9 22.5 18.7 82 2.0 ENE 13 17 7 9 1010.5 1008.1 1.4
20/04:00am 22.1 22.0 18.7 81 2.2 NE 17 24 9 13 1010.0 1007.7 1.4
20/03:30am 21.8 21.3 18.6 82 2.0 ENE 19 24 10 13 1009.7 1007.4 1.4
20/03:00am 21.9 20.5 18.7 82 2.0 ENE 24 33 13 18 1009.8 1007.5 1.4
20/02:46am 22.0 20.6 18.8 82 2.1 ENE 24 30 13 16 1009.8 1007.5 1.4
20/02:30am 22.2 21.6 18.8 81 2.2 ENE 20 24 11 13 1010.1 1007.8 1.4
20/02:16am 22.2 21.3 19.0 82 2.1 ENE 22 32 12 17 1010.6 1008.2 1.4
20/02:00am 22.2 21.6 18.8 81 2.2 ENE 20 30 11 16 1010.6 1008.2 1.4
20/01:30am 22.0 21.8 18.6 81 2.2 ENE 17 24 9 13 1010.6 1008.2 1.4
20/01:00am 21.8 21.5 18.2 80 2.3 ENE 17 20 9 11 1010.7 1008.3 1.4
20/12:30am 22.1 21.2 18.1 78 2.5 ENE 20 26 11 14 1010.7 1008.3 1.4
20/12:00am 22.4 21.8 18.8 80 2.3 ENE 20 28 11 15 1010.9 1008.5 1.4
 
Date/Time
EST
Temp
°C
App
Temp
°C
Dew
Point
°C
Rel
Hum
%
Delta-T
°C
Wind Press
QNH
hPa
Press
MSL
hPa
Rain since
9am
mm
Dir  Spd
km/h
Gust
km/h
Spd
kts
Gust
kts
19/11:50pm 22.6 21.3 19.0 80 2.3 ENE 24 32 13 17 1010.9 1008.5 1.4
19/11:30pm 22.9 22.3 19.7 82 2.1 ENE 22 30 12 16 1011.1 1008.7 1.4
19/11:20pm 22.8 22.5 19.6 82 2.1 ENE 20 28 11 15 1011.3 1008.9 1.4
19/11:00pm 22.8 21.7 19.4 81 2.2 ENE 24 28 13 15 1011.4 1009.1 1.4
19/10:30pm 22.9 21.8 19.5 81 2.2 ENE 24 33 13 18 1011.5 1009.2 1.4
19/10:00pm 23.1 22.0 19.5 80 2.3 ENE 24 32 13 17 1011.5 1009.2 1.4
19/09:30pm 23.5 21.8 19.8 80 2.4 ENE 28 39 15 21 1011.6 1009.3 1.4
19/09:00pm 23.6 23.2 20.1 81 2.3 ENE 22 28 12 15 1011.6 1009.3 1.4
19/08:30pm 23.7 24.1 20.6 83 2.1 ENE 19 24 10 13 1011.7 1009.4 1.4
19/08:00pm 23.5 23.2 20.4 83 2.0 ENE 22 28 12 15 1011.7 1009.4 1.4
19/07:30pm 23.5 23.2 20.4 83 2.0 ENE 22 26 12 14 1011.4 1009.1 1.4
19/07:00pm 23.7 23.5 20.6 83 2.1 ENE 22 30 12 16 1010.9 1008.5 1.4
19/06:30pm 24.0 24.8 21.3 85 1.8 N 19 28 10 15 1010.9 1008.5 1.4
19/06:00pm 23.8 23.6 21.3 86 1.7 ENE 24 30 13 16 1010.2 1007.9 1.4
19/05:30pm 23.3 23.3 21.0 87 1.5 NE 22 28 12 15 1009.8 1007.5 0.8
19/05:00pm 22.9 22.6 20.4 86 1.6 NNE 22 28 12 15 1009.3 1007.0 0.4
19/04:30pm 23.4 20.9 20.2 82 2.1 WNW 33 54 18 29 1009.9 1007.6 0.0
19/04:22pm 23.0 18.4 20.1 84 1.9 WNW 44 69 24 37 1010.9 1008.5 0.0
19/04:19pm 23.2 19.2 19.4 79 2.5 WNW 39 69 21 37 1010.6 1008.2 0.0
19/04:07pm 26.6 24.2 18.2 60 5.4 NE 28 54 15 29 1010.7 1008.3 0.0
19/04:00pm 30.8 29.4 20.4 54 7.0 E 28 37 15 20 1009.4 1007.1 0.0

Latest Capital City Observations: Canberra | Sydney | Melbourne | Brisbane | Adelaide | Perth | Hobart | Darwin

Other Formats:

Comma delimited format used in spreadsheet applications
http://www.bom.gov.au/fwo/IDQ60901/IDQ60901.94552.axf

JavaScript Object Notation format (JSON) in row-major order
http://www.bom.gov.au/fwo/IDQ60901/IDQ60901.94552.json